Time;durP1;ratioP1;P1;durP2;ratioP2;P2;SDS_P1;SDS_P2;PMS_P1;PMS_P2;Temp;Humidity;BMP_temperature;BMP_pressure;BME280_temperature;BME280_humidity;BME280_pressure;Samples;Min_cycle;Max_cycle;Signal;HPM_P1;HPM_P2
2021/01/14 00:00:05;;;;;;;1999.90;999.90;;;;;;;0.67;89.31;96928.59;4980499;28;21988;-63
2021/01/14 00:02:31;;;;;;;1999.90;999.90;;;;;;;0.67;88.61;96918.56;4963292;28;20046;-62
2021/01/14 00:04:57;;;;;;;1999.90;999.90;;;;;;;0.88;87.54;96924.47;4964203;28;20105;-63
2021/01/14 00:07:23;;;;;;;1999.90;999.90;;;;;;;0.97;87.81;96921.88;4964359;28;20085;-63
2021/01/14 00:09:49;;;;;;;1999.90;999.90;;;;;;;0.77;88.31;96923.00;4962004;28;20313;-63
2021/01/14 00:12:16;;;;;;;1999.90;999.90;;;;;;;0.82;87.18;96916.69;4962057;28;20046;-63
2021/01/14 00:14:42;;;;;;;1999.90;999.90;;;;;;;0.84;87.88;96911.75;4962043;28;20054;-63
2021/01/14 00:17:08;;;;;;;1999.90;999.90;;;;;;;0.37;89.57;96914.38;4957498;28;20054;-62
2021/01/14 00:19:34;;;;;;;1999.90;999.90;;;;;;;0.14;91.00;96913.34;4962800;28;20337;-63
2021/01/14 00:22:00;;;;;;;1999.90;999.90;;;;;;;0.59;89.98;96913.78;4963631;28;20047;-62
2021/01/14 00:24:26;;;;;;;1999.90;999.90;;;;;;;0.59;90.62;96911.06;4955952;28;20050;-63
2021/01/14 00:26:52;;;;;;;1999.90;999.90;;;;;;;0.55;90.70;96909.22;4961303;28;20054;-62
2021/01/14 00:29:19;;;;;;;1999.90;999.90;;;;;;;0.28;93.51;96906.09;4961843;28;20047;-62
2021/01/14 00:31:45;;;;;;;1999.90;999.90;;;;;;;0.15;94.79;96901.38;4964137;28;20050;-62
2021/01/14 00:34:11;;;;;;;1999.90;999.90;;;;;;;0.20;94.04;96898.59;4967037;28;20050;-62
2021/01/14 00:39:25;;;;;;;1999.90;999.90;;;;;;;0.22;95.05;96896.38;4962097;28;20050;-62
2021/01/14 00:41:52;;;;;;;1999.90;999.90;;;;;;;0.70;92.83;96885.31;4964838;28;20070;-62
2021/01/14 00:44:18;;;;;;;1999.90;999.90;;;;;;;0.55;92.49;96887.47;4963032;28;20054;-62
2021/01/14 00:46:44;;;;;;;1999.90;999.90;;;;;;;0.44;93.83;96884.09;4958355;28;20051;-62
2021/01/14 00:49:11;;;;;;;1999.90;999.90;;;;;;;0.38;93.31;96888.81;4955983;28;20055;-62
2021/01/14 00:51:40;;;;;;;1999.90;999.90;;;;;;;0.43;93.37;96882.47;4960850;28;20054;-62
2021/01/14 00:54:07;;;;;;;1999.90;999.90;;;;;;;0.53;93.12;96876.88;4961449;28;20554;-62
2021/01/14 00:56:35;;;;;;;1999.90;999.90;;;;;;;0.57;93.40;96877.91;4956546;28;20055;-62
2021/01/14 00:59:02;;;;;;;1999.90;999.90;;;;;;;0.61;92.70;96870.78;4954535;28;20050;-62
2021/01/14 01:01:29;;;;;;;1999.90;999.90;;;;;;;0.46;92.91;96879.16;4963575;28;20042;-62
2021/01/14 01:03:55;;;;;;;1999.90;999.90;;;;;;;0.75;92.22;96875.44;4959023;28;20055;-62
2021/01/14 01:06:22;;;;;;;1999.90;999.90;;;;;;;1.09;91.13;96868.84;4963325;28;20396;-62
2021/01/14 01:08:50;;;;;;;1999.90;999.90;;;;;;;0.67;91.36;96866.84;4961774;28;20058;-62
2021/01/14 01:11:25;;;;;;;1999.90;999.90;;;;;;;0.79;91.42;96865.56;4961011;28;20444;-62
2021/01/14 01:13:52;;;;;;;1999.90;999.90;;;;;;;0.65;91.50;96860.09;4961934;28;20466;-62
2021/01/14 01:16:19;;;;;;;1999.90;999.90;;;;;;;0.42;91.78;96867.28;4961214;28;20055;-62
2021/01/14 01:18:46;;;;;;;1999.90;999.90;;;;;;;0.48;92.37;96864.16;4964766;28;20128;-62
2021/01/14 01:21:12;;;;;;;1999.90;999.90;;;;;;;0.53;91.83;96860.56;4962184;28;20114;-62
2021/01/14 01:23:38;;;;;;;1999.90;999.90;;;;;;;0.18;93.59;96862.75;4966421;28;20113;-62
2021/01/14 01:26:05;;;;;;;1999.90;999.90;;;;;;;0.34;93.08;96861.41;4961860;28;20122;-62
2021/01/14 01:28:31;;;;;;;1999.90;999.90;;;;;;;0.15;94.00;96857.88;4968727;28;20094;-62
2021/01/14 01:30:57;;;;;;;1999.90;999.90;;;;;;;0.54;93.59;96856.75;4962000;28;20078;-62
2021/01/14 01:33:27;;;;;;;1999.90;999.90;;;;;;;0.74;92.66;96863.75;4963094;28;20345;-62
2021/01/14 01:35:54;;;;;;;1999.90;999.90;;;;;;;0.57;93.16;96858.88;4967527;28;20129;-62
2021/01/14 01:38:21;;;;;;;1999.90;999.90;;;;;;;0.42;93.90;96856.41;4965381;28;20050;-62
2021/01/14 01:40:58;;;;;;;1999.90;999.90;;;;;;;0.25;93.42;96852.28;4962096;28;20272;-62
2021/01/14 01:43:25;;;;;;;1999.90;999.90;;;;;;;0.01;94.48;96857.78;4963919;28;20046;-62
2021/01/14 01:45:51;;;;;;;1999.90;999.90;;;;;;;0.37;94.26;96851.81;4964938;28;20113;-62
2021/01/14 01:48:18;;;;;;;1999.90;999.90;;;;;;;0.19;93.90;96856.16;4955952;28;20113;-62
2021/01/14 01:50:45;;;;;;;1999.90;999.90;;;;;;;0.07;94.62;96856.63;4965797;28;20059;-63
2021/01/14 01:53:12;;;;;;;1999.90;999.90;;;;;;;0.17;94.69;96850.22;4959986;28;20459;-63
2021/01/14 01:55:39;;;;;;;1999.90;999.90;;;;;;;0.31;93.79;96847.56;4960167;28;20059;-63
2021/01/14 01:58:05;;;;;;;1999.90;999.90;;;;;;;0.24;94.03;96849.84;4963986;28;20213;-62
2021/01/14 02:00:32;;;;;;;1999.90;999.90;;;;;;;0.25;93.84;96840.59;4954303;28;20043;-63
2021/01/14 02:02:58;;;;;;;1999.90;999.90;;;;;;;0.21;93.89;96840.41;4962341;28;20169;-63
2021/01/14 02:05:24;;;;;;;1999.90;999.90;;;;;;;0.37;94.25;96842.88;4964866;28;20528;-63
2021/01/14 02:08:11;;;;;;;1999.90;999.90;;;;;;;0.33;94.31;96840.75;4967236;28;20055;-63
2021/01/14 02:10:56;;;;;;;1999.90;999.90;;;;;;;0.38;93.74;96828.19;4968048;28;20047;-62
2021/01/14 02:13:39;;;;;;;1999.90;999.90;;;;;;;0.30;93.97;96835.09;4968121;28;20113;-63
2021/01/14 02:16:06;;;;;;;1999.90;999.90;;;;;;;0.40;93.16;96834.13;4966929;28;20109;-63
2021/01/14 02:18:33;;;;;;;1999.90;999.90;;;;;;;0.60;92.04;96841.94;4964055;28;20044;-62
2021/01/14 02:21:03;;;;;;;1999.90;999.90;;;;;;;0.38;92.74;96836.34;4956967;28;20063;-63
2021/01/14 02:24:03;;;;;;;1999.90;999.90;;;;;;;0.65;92.73;96839.13;4963381;28;20105;-63
2021/01/14 02:26:31;;;;;;;1999.90;999.90;;;;;;;0.09;93.46;96842.72;4965326;28;20058;-63
2021/01/14 02:28:59;;;;;;;1999.90;999.90;;;;;;;0.19;94.65;96836.34;4959740;28;20059;-63
2021/01/14 02:31:26;;;;;;;1999.90;999.90;;;;;;;0.38;93.38;96828.19;4958105;28;20455;-63
2021/01/14 02:33:54;;;;;;;1999.90;999.90;;;;;;;-0.20;94.67;96839.06;4967714;28;20054;-63
2021/01/14 02:36:22;;;;;;;1999.90;999.90;;;;;;;-0.03;95.96;96832.28;4962777;28;20300;-63
2021/01/14 02:38:48;;;;;;;1999.90;999.90;;;;;;;-0.20;96.11;96835.53;4965590;28;20050;-63
2021/01/14 02:41:14;;;;;;;1999.90;999.90;;;;;;;-0.16;96.46;96836.56;4963054;28;20385;-63
2021/01/14 02:43:42;;;;;;;1999.90;999.90;;;;;;;-0.24;95.82;96829.88;4959249;28;20055;-63
2021/01/14 02:46:09;;;;;;;1999.90;999.90;;;;;;;-0.01;96.12;96835.53;4963308;28;20043;-63
2021/01/14 02:48:38;;;;;;;1999.90;999.90;;;;;;;0.22;94.84;96828.41;4958081;28;20390;-63
2021/01/14 02:51:08;;;;;;;1999.90;999.90;;;;;;;0.28;94.46;96835.41;4957244;28;20043;-63
2021/01/14 02:53:36;;;;;;;1999.90;999.90;;;;;;;0.06;94.24;96827.00;4958326;28;20050;-63
2021/01/14 02:56:05;;;;;;;1999.90;999.90;;;;;;;0.10;94.82;96830.75;4964996;28;20576;-63
2021/01/14 02:58:32;;;;;;;1999.90;999.90;;;;;;;0.07;94.87;96834.88;4961476;28;20051;-63
2021/01/14 03:00:58;;;;;;;1999.90;999.90;;;;;;;0.58;93.32;96838.72;4967305;28;20057;-63
2021/01/14 03:03:25;;;;;;;1999.90;999.90;;;;;;;0.80;91.63;96837.25;4966787;28;20055;-63
2021/01/14 03:05:51;;;;;;;1999.90;999.90;;;;;;;0.59;91.60;96842.25;4966779;28;20125;-63
2021/01/14 03:08:17;;;;;;;1999.90;999.90;;;;;;;0.39;92.61;96832.50;4960569;28;20055;-63
2021/01/14 03:10:46;;;;;;;1999.90;999.90;;;;;;;0.45;92.64;96834.84;4961535;28;20448;-63
2021/01/14 03:13:12;;;;;;;1999.90;999.90;;;;;;;-0.01;94.09;96833.63;4960685;28;20047;-63
2021/01/14 03:15:38;;;;;;;1999.90;999.90;;;;;;;0.06;95.03;96837.88;4963729;28;20050;-63
2021/01/14 03:18:04;;;;;;;1999.90;999.90;;;;;;;0.25;93.90;96838.69;4954910;28;20114;-63
2021/01/14 03:20:30;;;;;;;1999.90;999.90;;;;;;;0.32;93.98;96847.28;4958395;28;20047;-63
2021/01/14 03:22:56;;;;;;;1999.90;999.90;;;;;;;-0.10;94.86;96850.91;4965903;28;20046;-63
2021/01/14 03:25:23;;;;;;;1999.90;999.90;;;;;;;0.15;94.71;96847.00;4955793;28;20105;-63
2021/01/14 03:27:49;;;;;;;1999.90;999.90;;;;;;;0.19;94.67;96849.94;4965372;28;20125;-63
2021/01/14 03:30:15;;;;;;;1999.90;999.90;;;;;;;0.01;94.80;96851.56;4952807;28;20042;-63
2021/01/14 03:32:41;;;;;;;1999.90;999.90;;;;;;;-0.03;95.54;96852.16;4963492;28;20081;-63
2021/01/14 03:35:08;;;;;;;1999.90;999.90;;;;;;;-0.10;95.15;96851.69;4959025;28;20047;-63
2021/01/14 03:37:42;;;;;;;1999.90;999.90;;;;;;;-0.12;96.61;96848.47;4964046;28;20456;-63
2021/01/14 03:40:09;;;;;;;1999.90;999.90;;;;;;;-0.10;95.22;96857.13;4963295;28;20109;-63
2021/01/14 03:42:37;;;;;;;1999.90;999.90;;;;;;;0.61;93.56;96861.78;4955933;28;20212;-63
2021/01/14 03:45:05;;;;;;;1999.90;999.90;;;;;;;0.77;92.11;96859.63;4959646;28;20062;-63
2021/01/14 03:47:31;;;;;;;1999.90;999.90;;;;;;;0.59;91.99;96859.38;4961387;28;20562;-63
2021/01/14 03:49:58;;;;;;;1999.90;999.90;;;;;;;0.30;93.93;96860.38;4957511;28;20055;-63
2021/01/14 03:52:24;;;;;;;1999.90;999.90;;;;;;;0.20;93.53;96867.88;4964413;28;20047;-62
2021/01/14 03:54:50;;;;;;;1999.90;999.90;;;;;;;0.17;93.60;96863.81;4963241;28;20097;-63
2021/01/14 03:57:16;;;;;;;1999.90;999.90;;;;;;;0.27;93.83;96863.69;4963259;28;20050;-63
2021/01/14 03:59:43;;;;;;;1999.90;999.90;;;;;;;0.22;93.79;96866.47;4953442;28;20280;-63
2021/01/14 04:02:10;;;;;;;1999.90;999.90;;;;;;;0.43;94.01;96871.59;4965360;28;20038;-63
2021/01/14 04:04:40;;;;;;;1999.90;999.90;;;;;;;0.05;94.73;96880.56;4962869;28;20058;-63
2021/01/14 04:07:08;;;;;;;1999.90;999.90;;;;;;;-0.37;97.14;96869.44;4961570;28;20120;-63
2021/01/14 04:09:34;;;;;;;1999.90;999.90;;;;;;;-0.81;99.60;96870.47;4957529;28;20571;-64
2021/01/14 04:12:00;;;;;;;1999.90;999.90;;;;;;;-0.41;98.41;96879.25;4965833;28;20043;-64
2021/01/14 04:14:27;;;;;;;1999.90;999.90;;;;;;;-0.28;97.16;96879.63;4953393;28;20051;-64
2021/01/14 04:16:53;;;;;;;1999.90;999.90;;;;;;;-0.17;95.71;96878.41;4955855;28;20711;-65
2021/01/14 04:19:20;;;;;;;1999.90;999.90;;;;;;;-0.32;95.38;96886.78;4964821;28;20054;-65
2021/01/14 04:21:47;;;;;;;1999.90;999.90;;;;;;;-0.42;96.42;96883.06;4957692;28;20109;-65
2021/01/14 04:24:13;;;;;;;1999.90;999.90;;;;;;;-0.66;95.97;96877.66;4960354;28;20050;-65
2021/01/14 04:26:40;;;;;;;1999.90;999.90;;;;;;;-0.38;96.57;96878.66;4963302;28;20051;-65
2021/01/14 04:29:07;;;;;;;1999.90;999.90;;;;;;;-0.13;94.75;96882.19;4961209;28;20051;-65
2021/01/14 04:31:33;;;;;;;1999.90;999.90;;;;;;;-0.07;93.60;96886.44;4961197;28;20043;-65
2021/01/14 04:34:01;;;;;;;1999.90;999.90;;;;;;;-0.18;94.31;96893.09;4956916;28;20500;-65
2021/01/14 04:36:28;;;;;;;1999.90;999.90;;;;;;;-0.11;94.13;96893.56;4964071;28;20054;-65
2021/01/14 04:38:54;;;;;;;1999.90;999.90;;;;;;;-0.11;94.45;96893.56;4962535;28;20047;-65
2021/01/14 04:41:21;;;;;;;1999.90;999.90;;;;;;;0.26;92.86;96896.59;4966172;28;20484;-65
2021/01/14 04:43:49;;;;;;;1999.90;999.90;;;;;;;-0.10;93.68;96895.19;4960459;28;20118;-65
2021/01/14 04:46:15;;;;;;;1999.90;999.90;;;;;;;0.57;91.33;96896.94;4958889;28;20053;-65
2021/01/14 04:48:46;;;;;;;1999.90;999.90;;;;;;;0.32;91.55;96907.09;4962452;28;20051;-65
2021/01/14 04:51:18;;;;;;;1999.90;999.90;;;;;;;0.10;91.97;96909.59;4964190;28;20054;-65
2021/01/14 04:53:46;;;;;;;1999.90;999.90;;;;;;;-0.40;94.39;96913.47;4964569;28;20062;-65
2021/01/14 04:56:14;;;;;;;1999.90;999.90;;;;;;;-0.46;96.02;96911.91;4967032;28;20475;-65
2021/01/14 04:58:45;;;;;;;1999.90;999.90;;;;;;;-0.84;96.62;96916.41;4964594;28;20459;-65
2021/01/14 05:01:20;;;;;;;1999.90;999.90;;;;;;;-0.64;97.07;96913.47;4964332;28;20034;-65
2021/01/14 05:03:47;;;;;;;1999.90;999.90;;;;;;;-1.02;97.10;96924.16;4964956;28;20086;-65
2021/01/14 05:06:22;;;;;;;1999.90;999.90;;;;;;;-0.79;97.48;96927.19;4968495;28;20058;-65
2021/01/14 05:08:50;;;;;;;1999.90;999.90;;;;;;;-0.50;96.06;96929.09;4959064;28;20051;-65
2021/01/14 05:11:18;;;;;;;1999.90;999.90;;;;;;;-0.63;96.50;96936.78;4960342;28;20070;-65
2021/01/14 05:13:45;;;;;;;1999.90;999.90;;;;;;;-0.73;95.98;96943.16;4965705;28;20408;-65
2021/01/14 05:16:12;;;;;;;1999.90;999.90;;;;;;;-0.85;95.93;96940.00;4956303;28;20058;-65
2021/01/14 05:18:40;;;;;;;1999.90;999.90;;;;;;;-1.45;97.81;96941.03;4958163;28;20058;-64
2021/01/14 05:21:06;;;;;;;1999.90;999.90;;;;;;;-1.31;98.95;96948.53;4959499;28;20059;-65
2021/01/14 05:23:32;;;;;;;1999.90;999.90;;;;;;;-1.44;99.26;96950.78;4964689;28;20050;-65
2021/01/14 05:25:59;;;;;;;1999.90;999.90;;;;;;;-1.82;99.77;96961.31;4963009;28;20162;-65
2021/01/14 05:28:28;;;;;;;1999.90;999.90;;;;;;;-1.66;100.00;96959.34;4961552;28;20054;-64
2021/01/14 05:31:13;;;;;;;1999.90;999.90;;;;;;;-1.68;100.00;96960.69;4963828;28;20046;-65
2021/01/14 05:33:39;;;;;;;1999.90;999.90;;;;;;;-1.47;100.00;96967.63;4964238;28;20062;-65
2021/01/14 05:36:06;;;;;;;1999.90;999.90;;;;;;;-1.49;99.49;96961.69;4965199;28;20046;-65
2021/01/14 05:38:32;;;;;;;1999.90;999.90;;;;;;;-1.61;99.13;96972.03;4964501;28;20071;-65
2021/01/14 05:41:10;;;;;;;1999.90;999.90;;;;;;;-1.67;100.00;96973.16;4965204;28;20047;-65
2021/01/14 05:43:57;;;;;;;1999.90;999.90;;;;;;;-1.65;99.76;96973.72;4962556;28;20057;-65
2021/01/14 05:46:27;;;;;;;1999.90;999.90;;;;;;;-1.22;99.36;96973.16;4956055;28;21136;-65
2021/01/14 05:49:08;;;;;;;1999.90;999.90;;;;;;;-1.62;99.35;96978.56;4958405;28;20047;-64
2021/01/14 05:51:35;;;;;;;1999.90;999.90;;;;;;;-1.44;99.54;96988.75;4952858;28;20088;-65
2021/01/14 05:54:12;;;;;;;1999.90;999.90;;;;;;;-1.39;98.77;96992.53;4960202;28;20909;-65
2021/01/14 05:56:47;;;;;;;1999.90;999.90;;;;;;;-1.80;99.18;96990.88;4962953;28;20059;-64
2021/01/14 05:59:15;;;;;;;1999.90;999.90;;;;;;;-1.69;100.00;96997.84;4954850;28;20101;-65
2021/01/14 06:01:59;;;;;;;1999.90;999.90;;;;;;;-1.49;99.40;97009.66;4957379;28;20051;-65
2021/01/14 06:04:27;;;;;;;1999.90;999.90;;;;;;;-1.31;98.56;97013.63;4959511;28;20105;-64
2021/01/14 06:07:02;;;;;;;1999.90;999.90;;;;;;;-1.30;98.56;97009.81;4954765;28;20145;-63
2021/01/14 06:09:29;;;;;;;1999.90;999.90;;;;;;;-0.90;97.40;97010.63;4960104;28;20054;-63
2021/01/14 06:12:10;;;;;;;1999.90;999.90;;;;;;;-1.43;97.60;97020.22;4958372;28;20416;-63
2021/01/14 06:14:37;;;;;;;1999.90;999.90;;;;;;;-1.42;98.07;97010.97;4958248;28;20063;-63
2021/01/14 06:17:08;;;;;;;1999.90;999.90;;;;;;;-1.54;99.11;97025.97;4962694;28;20110;-63
2021/01/14 06:19:35;;;;;;;1999.90;999.90;;;;;;;-1.60;99.14;97027.91;4957823;28;20073;-63
2021/01/14 06:22:04;;;;;;;1999.90;999.90;;;;;;;-1.74;98.07;97026.88;4956948;28;20054;-62
2021/01/14 06:24:37;;;;;;;1999.90;999.90;;;;;;;-1.45;98.94;97029.72;4952382;28;20051;-63
2021/01/14 06:27:06;;;;;;;1999.90;999.90;;;;;;;-1.28;97.92;97034.75;4960842;28;20355;-64
2021/01/14 06:29:34;;;;;;;1999.90;999.90;;;;;;;-1.16;97.17;97031.69;4955582;28;20051;-63
2021/01/14 06:32:10;;;;;;;1999.90;999.90;;;;;;;-1.37;97.08;97047.28;4956832;28;20516;-63
2021/01/14 06:34:42;;;;;;;1999.90;999.90;;;;;;;-1.24;96.88;97052.09;4961359;28;20158;-63
2021/01/14 06:37:22;;;;;;;1999.90;999.90;;;;;;;-0.85;95.45;97048.56;4956479;28;20110;-64
2021/01/14 06:39:51;;;;;;;1999.90;999.90;;;;;;;-1.12;95.44;97060.69;4958141;28;20449;-63
2021/01/14 06:42:31;;;;;;;1999.90;999.90;;;;;;;-0.76;94.57;97052.31;4958255;28;20055;-64
2021/01/14 06:45:02;;;;;;;1999.90;999.90;;;;;;;-0.82;94.55;97075.16;4961739;28;20169;-63
2021/01/14 06:47:37;;;;;;;1999.90;999.90;;;;;;;-0.78;93.93;97070.78;4959361;28;20055;-63
2021/01/14 06:50:18;;;;;;;1999.90;999.90;;;;;;;-0.85;93.78;97081.13;4952585;28;20062;-63
2021/01/14 06:52:59;;;;;;;1999.90;999.90;;;;;;;-1.11;95.07;97075.88;4975276;28;20054;-63
2021/01/14 06:55:28;;;;;;;1999.90;999.90;;;;;;;-0.85;94.85;97086.56;4948886;28;20057;-63
2021/01/14 06:58:13;;;;;;;1999.90;999.90;;;;;;;-1.05;94.62;97095.66;4963656;28;20058;-64
2021/01/14 07:00:41;;;;;;;1999.90;999.90;;;;;;;-0.83;93.71;97087.09;4975963;28;20059;-63
2021/01/14 07:05:53;;;;;;;1999.90;999.90;;;;;;;-0.95;93.88;97103.75;4961662;28;20058;-64
2021/01/14 07:08:39;;;;;;;1999.90;999.90;;;;;;;-0.90;93.72;97105.59;4960346;28;20655;-64
2021/01/14 07:11:11;;;;;;;1999.90;999.90;;;;;;;-1.23;95.06;97118.81;4960703;28;20078;-64
2021/01/14 07:13:42;;;;;;;1999.90;999.90;;;;;;;-1.41;95.91;97122.97;4959022;28;20475;-64
2021/01/14 07:16:11;;;;;;;1999.90;999.90;;;;;;;-0.98;94.69;97134.16;4955846;28;20051;-63
2021/01/14 07:18:40;;;;;;;1999.90;999.90;;;;;;;-1.12;94.39;97130.44;4957092;28;20055;-64
2021/01/14 07:24:33;;;;;;;1999.90;999.90;;;;;;;-1.27;95.15;97139.47;4946523;28;20050;-63
2021/01/14 07:27:01;;;;;;;1999.90;999.90;;;;;;;-1.05;94.72;97149.94;4959924;28;20171;-64
2021/01/14 07:29:30;;;;;;;1999.90;999.90;;;;;;;-0.97;93.78;97162.09;4955224;28;20082;-64
2021/01/14 07:31:59;;;;;;;1999.90;999.90;;;;;;;-1.05;94.56;97163.50;4951223;28;20333;-64
2021/01/14 07:34:44;;;;;;;1999.90;999.90;;;;;;;-0.62;91.78;97171.13;4957384;28;20127;-64
2021/01/14 07:37:12;;;;;;;1999.90;999.90;;;;;;;-0.27;90.72;97169.25;4952124;28;20051;-64
2021/01/14 07:39:51;;;;;;;1999.90;999.90;;;;;;;-0.37;90.44;97172.88;4952963;28;20059;-64
2021/01/14 07:42:27;;;;;;;1999.90;999.90;;;;;;;-0.80;91.37;97176.13;4952895;28;20460;-64
2021/01/14 07:44:55;;;;;;;1999.90;999.90;;;;;;;-0.69;90.66;97181.50;4959103;28;20058;-64
2021/01/14 07:47:30;;;;;;;1999.90;999.90;;;;;;;-0.81;91.14;97179.13;4964769;28;20582;-64
2021/01/14 07:49:58;;;;;;;1999.90;999.90;;;;;;;-1.18;92.69;97183.09;4956812;28;20092;-64
2021/01/14 07:52:34;;;;;;;1999.90;999.90;;;;;;;-0.71;92.16;97189.91;4958636;28;20054;-64
2021/01/14 07:55:07;;;;;;;1999.90;999.90;;;;;;;-0.61;90.99;97195.28;4954367;28;20522;-64
2021/01/14 07:57:59;;;;;;;1999.90;999.90;;;;;;;-1.00;92.24;97181.66;4963577;28;20093;-64
2021/01/14 08:00:25;;;;;;;1999.90;999.90;;;;;;;-0.59;90.97;97200.44;4953933;28;20102;-64
2021/01/14 08:03:14;;;;;;;1999.90;999.90;;;;;;;-0.88;91.12;97203.84;4961463;28;20100;-64
2021/01/14 08:05:44;;;;;;;1999.90;999.90;;;;;;;-0.85;90.93;97210.63;4955183;28;20082;-63
2021/01/14 08:08:53;;;;;;;1999.90;999.90;;;;;;;-0.82;91.10;97216.31;4954755;28;20050;-64
2021/01/14 08:11:21;;;;;;;1999.90;999.90;;;;;;;-1.09;92.29;97217.53;4947696;28;20055;-64
2021/01/14 08:14:10;;;;;;;1999.90;999.90;;;;;;;-1.12;92.62;97226.19;4958218;28;20055;-64
2021/01/14 08:16:39;;;;;;;1999.90;999.90;;;;;;;-0.95;92.70;97228.59;4958365;28;20459;-64
2021/01/14 08:19:09;;;;;;;1999.90;999.90;;;;;;;-0.78;91.77;97217.34;4964760;28;20455;-64
2021/01/14 08:21:36;;;;;;;1999.90;999.90;;;;;;;-0.86;90.81;97220.69;4957925;28;20559;-64
2021/01/14 08:24:31;;;;;;;1999.90;999.90;;;;;;;-0.52;90.77;97228.09;4954878;28;20054;-64
2021/01/14 08:27:04;;;;;;;1999.90;999.90;;;;;;;-0.65;91.57;97226.00;4963949;28;20299;-64
2021/01/14 08:29:39;;;;;;;1999.90;999.90;;;;;;;-0.45;90.47;97238.63;4959972;28;20054;-64
2021/01/14 08:32:43;;;;;;;1999.90;999.90;;;;;;;-0.95;90.77;97239.44;4957948;28;20046;-64
2021/01/14 08:35:34;;;;;;;1999.90;999.90;;;;;;;-1.19;92.39;97252.84;4960674;28;20146;-65
2021/01/14 08:38:13;;;;;;;1999.90;999.90;;;;;;;-0.70;92.02;97251.25;4955590;28;20479;-64
2021/01/14 08:40:41;;;;;;;1999.90;999.90;;;;;;;-0.48;91.48;97259.00;4960543;28;20122;-65
2021/01/14 08:43:12;;;;;;;1999.90;999.90;;;;;;;-0.64;91.52;97255.59;4957900;28;20513;-64
2021/01/14 08:45:47;;;;;;;1999.90;999.90;;;;;;;-0.77;92.01;97261.63;4959399;28;20085;-64
2021/01/14 08:48:18;;;;;;;1999.90;999.90;;;;;;;-0.60;91.83;97263.97;4958189;28;20088;-65
2021/01/14 08:50:54;;;;;;;1999.90;999.90;;;;;;;-0.72;91.46;97275.16;4949626;28;20401;-64
2021/01/14 08:53:39;;;;;;;1999.90;999.90;;;;;;;0.02;89.53;97282.63;4961855;28;20491;-65
2021/01/14 08:56:08;;;;;;;1999.90;999.90;;;;;;;-0.28;89.03;97284.44;4954376;28;20055;-64
2021/01/14 08:58:43;;;;;;;1999.90;999.90;;;;;;;-0.57;91.12;97285.94;4956393;28;20427;-64
2021/01/14 09:01:19;;;;;;;1999.90;999.90;;;;;;;-0.56;90.75;97297.63;4958498;28;20054;-64
2021/01/14 09:03:47;;;;;;;1999.90;999.90;;;;;;;-0.56;90.23;97300.34;4953967;28;20533;-64
2021/01/14 09:06:27;;;;;;;1999.90;999.90;;;;;;;-0.94;92.36;97308.09;4958727;28;20158;-64
2021/01/14 09:08:54;;;;;;;1999.90;999.90;;;;;;;-0.74;92.45;97310.75;4955046;28;20126;-64
2021/01/14 09:11:24;;;;;;;1999.90;999.90;;;;;;;-0.25;90.88;97311.06;4959730;28;20066;-65
2021/01/14 09:14:10;;;;;;;1999.90;999.90;;;;;;;-0.52;90.11;97319.59;4955744;28;20065;-64
2021/01/14 09:16:37;;;;;;;1999.90;999.90;;;;;;;-0.56;90.55;97317.44;4959497;28;20381;-65
2021/01/14 09:19:17;;;;;;;1999.90;999.90;;;;;;;-0.08;90.36;97330.50;4970834;28;20669;-65
2021/01/14 09:21:44;;;;;;;1999.90;999.90;;;;;;;0.27;87.79;97328.66;4953643;28;20429;-65
2021/01/14 09:24:12;;;;;;;1999.90;999.90;;;;;;;0.02;88.05;97339.72;4958162;28;20094;-65
2021/01/14 09:26:43;;;;;;;1999.90;999.90;;;;;;;-0.20;89.35;97330.84;4951296;28;20206;-65
2021/01/14 09:29:13;;;;;;;;;;;;;;;-0.16;89.12;97343.88;4951426;28;20059;-64
2021/01/14 09:31:41;;;;;;;1999.90;999.90;;;;;;;-0.47;89.89;97344.03;4957452;28;20338;-65
2021/01/14 09:34:08;;;;;;;1999.90;999.90;;;;;;;-0.48;90.78;97345.94;4957283;28;20419;-64
2021/01/14 09:36:35;;;;;;;1999.90;999.90;;;;;;;-0.38;91.77;97351.31;4964670;28;20047;-65
2021/01/14 09:39:05;;;;;;;1999.90;999.90;;;;;;;0.21;88.64;97351.53;4963631;28;20046;-65
2021/01/14 09:41:33;;;;;;;1999.90;999.90;;;;;;;-0.31;90.26;97350.19;4965872;28;20043;-65
2021/01/14 09:44:03;;;;;;;1999.90;999.90;;;;;;;0.22;89.49;97352.34;4961638;28;20059;-65
2021/01/14 09:46:34;;;;;;;1999.90;999.90;;;;;;;0.05;90.29;97352.75;4961666;28;20117;-65
2021/01/14 09:49:05;;;;;;;1999.90;999.90;;;;;;;0.52;88.19;97363.00;4962841;28;20054;-65
2021/01/14 09:51:35;;;;;;;1999.90;999.90;;;;;;;0.39;86.86;97370.97;4965452;28;20053;-64
2021/01/14 09:54:06;;;;;;;1999.90;999.90;;;;;;;0.17;89.10;97372.22;4957222;28;20114;-65
2021/01/14 09:56:43;;;;;;;1999.90;999.90;;;;;;;0.05;89.48;97369.06;4960172;28;20110;-65
2021/01/14 09:59:22;;;;;;;1999.90;999.90;;;;;;;-0.22;90.60;97381.16;4960862;28;20063;-65
2021/01/14 10:02:04;;;;;;;1999.90;999.90;;;;;;;-0.26;91.03;97380.06;4966300;28;20550;-65
2021/01/14 10:04:34;;;;;;;1999.90;999.90;;;;;;;-0.10;90.21;97392.50;4950922;28;20066;-65
2021/01/14 10:07:06;;;;;;;1999.90;999.90;;;;;;;-0.37;90.87;97390.19;4964669;28;20051;-64
2021/01/14 10:09:34;;;;;;;1999.90;999.90;;;;;;;-0.39;91.16;97386.91;4956425;28;20055;-64
2021/01/14 10:12:03;;;;;;;1999.90;999.90;;;;;;;-0.44;91.56;97389.66;4963386;28;20106;-65
2021/01/14 10:14:29;;;;;;;1999.90;999.90;;;;;;;-0.46;93.13;97389.94;4957574;28;20077;-65
2021/01/14 10:17:14;;;;;;;1999.90;999.90;;;;;;;0.14;91.78;97394.53;4958422;28;20054;-65
2021/01/14 10:19:46;;;;;;;1999.90;999.90;;;;;;;0.21;90.38;97395.06;4961696;28;20459;-65
2021/01/14 10:22:12;;;;;;;1999.90;999.90;;;;;;;-0.01;90.16;97396.25;4955772;28;20058;-64
2021/01/14 10:24:38;;;;;;;1999.90;999.90;;;;;;;0.03;91.08;97390.25;4961073;28;20062;-65
2021/01/14 10:27:10;;;;;;;1999.90;999.90;;;;;;;-0.48;92.44;97394.81;4959084;28;20047;-64
2021/01/14 10:29:39;;;;;;;1999.90;999.90;;;;;;;-0.33;93.00;97399.38;4964032;28;20448;-65
2021/01/14 10:32:06;;;;;;;1999.90;999.90;;;;;;;-0.42;92.54;97396.41;4964351;28;20055;-65
2021/01/14 10:34:56;;;;;;;1999.90;999.90;;;;;;;-0.21;92.69;97399.06;4961289;28;20054;-65
2021/01/14 10:37:25;;;;;;;1999.90;999.90;;;;;;;0.12;92.11;97399.44;4952434;28;20456;-65
2021/01/14 10:39:53;;;;;;;1999.90;999.90;;;;;;;0.30;90.75;97408.88;4955457;28;20066;-65
2021/01/14 10:42:38;;;;;;;1999.90;999.90;;;;;;;0.40;90.35;97407.97;4957599;28;20055;-65
2021/01/14 10:45:05;;;;;;;1999.90;999.90;;;;;;;0.43;90.05;97407.41;4956278;28;20723;-65
2021/01/14 10:47:31;;;;;;;1999.90;999.90;;;;;;;0.41;90.39;97407.69;4956039;28;20109;-65
2021/01/14 10:49:58;;;;;;;1999.90;999.90;;;;;;;0.63;89.15;97415.41;4960797;28;20082;-65
2021/01/14 10:52:27;;;;;;;1999.90;999.90;;;;;;;0.19;90.62;97418.16;4960915;28;20105;-65
2021/01/14 10:55:01;;;;;;;1999.90;999.90;;;;;;;-0.31;93.05;97420.84;4958355;28;20061;-65
2021/01/14 10:57:52;;;;;;;1999.90;999.90;;;;;;;0.02;91.92;97429.41;4964451;28;20105;-65
2021/01/14 11:00:23;;;;;;;1999.90;999.90;;;;;;;-0.16;92.95;97430.84;4948856;28;20114;-64
2021/01/14 11:03:00;;;;;;;1999.90;999.90;;;;;;;0.45;90.75;97427.78;4959661;28;20481;-65
2021/01/14 11:05:48;;;;;;;1999.90;999.90;;;;;;;0.59;89.90;97427.97;4951735;28;20077;-65
2021/01/14 11:08:16;;;;;;;1999.90;999.90;;;;;;;1.03;88.12;97437.97;4963206;28;20105;-65
2021/01/14 11:10:44;;;;;;;1999.90;999.90;;;;;;;0.81;87.52;97429.44;4958597;28;20062;-64
2021/01/14 11:13:13;;;;;;;1999.90;999.90;;;;;;;-0.04;90.84;97437.59;4958712;28;20047;-64
2021/01/14 11:15:39;;;;;;;1999.90;999.90;;;;;;;-0.43;92.62;97430.13;4962689;28;20375;-64
2021/01/14 11:18:07;;;;;;;1999.90;999.90;;;;;;;-0.18;92.47;97436.53;4962041;28;20047;-65
2021/01/14 11:20:37;;;;;;;1999.90;999.90;;;;;;;-0.04;92.29;97442.22;4950037;28;20088;-65